createdAt,value
2023-05-05T00:02:13.550Z,4.63
2023-05-05T00:04:40.035Z,4.38
2023-05-05T00:07:06.583Z,4.50
2023-05-05T00:09:33.101Z,3.95
2023-05-05T00:11:59.555Z,4.55
2023-05-05T00:14:26.046Z,3.88
2023-05-05T00:16:52.590Z,3.30
2023-05-05T00:19:19.231Z,3.67
2023-05-05T00:21:45.935Z,3.60
2023-05-05T00:24:12.379Z,3.88
2023-05-05T00:26:38.823Z,3.58
2023-05-05T00:29:05.496Z,3.80
2023-05-05T00:31:32.213Z,3.60
2023-05-05T00:33:58.948Z,3.38
2023-05-05T00:36:25.522Z,3.88
2023-05-05T00:38:52.004Z,4.05
2023-05-05T00:41:18.413Z,4.28
2023-05-05T00:43:44.912Z,3.77
2023-05-05T00:46:25.772Z,3.83
2023-05-05T00:48:52.571Z,3.80
2023-05-05T00:51:20.446Z,3.67
2023-05-05T00:53:48.226Z,3.70
2023-05-05T00:56:16.909Z,2.97
2023-05-05T00:58:43.950Z,4.47
2023-05-05T01:01:11.716Z,3.90
2023-05-05T01:03:39.883Z,3.60
2023-05-05T01:06:38.993Z,3.97
2023-05-05T01:09:29.870Z,4.00
2023-05-05T01:12:14.975Z,3.20
2023-05-05T01:14:47.159Z,3.67
2023-05-05T01:17:18.977Z,3.55
2023-05-05T01:19:58.828Z,3.70
2023-05-05T01:22:31.764Z,3.50
2023-05-05T01:25:30.540Z,3.70
2023-05-05T01:28:06.148Z,3.50
2023-05-05T01:31:08.718Z,3.53
2023-05-05T01:33:42.132Z,3.63
2023-05-05T01:36:14.834Z,3.50
2023-05-05T01:38:45.008Z,3.50
2023-05-05T01:41:26.437Z,3.88
2023-05-05T01:43:56.952Z,4.25
2023-05-05T01:46:24.767Z,4.03
2023-05-05T01:48:52.655Z,4.30
2023-05-05T01:51:20.237Z,3.88
2023-05-05T01:53:46.699Z,4.30
2023-05-05T01:56:14.338Z,4.30
2023-05-05T01:58:44.969Z,4.60
2023-05-05T02:01:13.391Z,4.00
2023-05-05T02:03:41.426Z,3.85
2023-05-05T02:06:10.239Z,4.32
2023-05-05T02:08:39.203Z,4.28
2023-05-05T02:11:06.987Z,4.65
2023-05-05T02:13:33.715Z,4.20
2023-05-05T02:16:01.344Z,4.90
2023-05-05T02:18:27.986Z,4.90
2023-05-05T02:20:54.534Z,5.40
2023-05-05T02:23:20.980Z,5.85
2023-05-05T02:25:51.175Z,5.93
2023-05-05T02:28:22.550Z,6.15
2023-05-05T02:30:57.196Z,6.50
2023-05-05T02:33:26.080Z,6.50
2023-05-05T02:35:56.368Z,7.63
2023-05-05T02:38:27.533Z,7.20
2023-05-05T02:40:57.226Z,7.03
2023-05-05T02:43:25.724Z,7.97
2023-05-05T02:45:52.210Z,7.82
2023-05-05T02:48:18.604Z,7.82
2023-05-05T02:50:45.019Z,8.77
2023-05-05T02:53:11.611Z,8.43
2023-05-05T02:55:51.595Z,8.85
2023-05-05T02:58:29.099Z,8.45
2023-05-05T03:01:11.363Z,8.90
2023-05-05T03:03:49.922Z,8.00
2023-05-05T03:06:19.739Z,8.50
2023-05-05T03:09:18.222Z,8.90
2023-05-05T03:11:57.190Z,8.13
2023-05-05T03:14:27.232Z,8.30
2023-05-05T03:16:55.054Z,7.90
2023-05-05T03:19:23.246Z,8.30
2023-05-05T03:21:50.235Z,8.35
2023-05-05T03:24:18.313Z,8.07
2023-05-05T03:26:46.698Z,8.40
2023-05-05T03:29:13.984Z,7.10
2023-05-05T03:31:40.900Z,7.07
2023-05-05T03:34:08.259Z,7.22
2023-05-05T03:36:35.632Z,7.40
2023-05-05T03:39:02.050Z,7.40
2023-05-05T03:41:28.618Z,8.00
2023-05-05T03:43:55.046Z,7.47
2023-05-05T03:46:21.524Z,7.85
2023-05-05T03:48:48.012Z,7.53
2023-05-05T03:51:14.579Z,8.75
2023-05-05T03:53:41.296Z,8.67
2023-05-05T03:56:07.932Z,9.07
2023-05-05T03:58:34.514Z,8.90
2023-05-05T04:01:00.961Z,9.18
2023-05-05T04:03:27.652Z,10.00
2023-05-05T04:05:54.182Z,9.83
2023-05-05T04:08:20.696Z,9.80
2023-05-05T04:10:47.218Z,9.93
2023-05-05T04:13:13.689Z,10.18
2023-05-05T04:15:47.114Z,10.45
2023-05-05T04:18:13.615Z,10.20
2023-05-05T04:20:40.052Z,11.07
2023-05-05T04:23:06.673Z,12.30
2023-05-05T04:25:33.110Z,11.65
2023-05-05T04:27:59.511Z,11.90
2023-05-05T04:30:25.950Z,11.80
2023-05-05T04:32:52.432Z,12.00
2023-05-05T04:35:18.917Z,12.30
2023-05-05T04:37:45.365Z,11.73
2023-05-05T04:40:12.084Z,9.18
2023-05-05T04:42:38.504Z,10.20
2023-05-05T04:45:05.246Z,10.82
2023-05-05T04:47:31.684Z,11.32
2023-05-05T04:49:58.102Z,11.30
2023-05-05T04:52:24.531Z,11.13
2023-05-05T04:54:51.081Z,11.03
2023-05-05T04:57:17.511Z,11.55
2023-05-05T04:59:43.921Z,11.45
2023-05-05T05:02:10.388Z,11.63
2023-05-05T05:04:36.815Z,12.02
2023-05-05T05:07:03.270Z,11.37
2023-05-05T05:09:29.722Z,11.82
2023-05-05T05:12:00.218Z,12.25
2023-05-05T05:14:26.634Z,11.57
2023-05-05T05:16:53.093Z,12.23
2023-05-05T05:19:19.616Z,12.33
2023-05-05T05:21:46.035Z,12.13
2023-05-05T05:24:12.458Z,12.13
2023-05-05T05:26:39.066Z,12.70
2023-05-05T05:29:05.508Z,12.48
2023-05-05T05:31:33.349Z,12.87
2023-05-05T05:33:59.951Z,12.20
2023-05-05T05:36:26.379Z,13.25
2023-05-05T05:38:52.822Z,12.45
2023-05-05T05:41:19.326Z,13.35
2023-05-05T05:43:45.710Z,12.87
2023-05-05T05:46:12.245Z,13.43
2023-05-05T05:48:38.670Z,13.20
2023-05-05T05:51:05.142Z,14.05
2023-05-05T05:53:31.569Z,12.80
2023-05-05T05:55:57.997Z,13.70
2023-05-05T05:58:24.397Z,12.38
2023-05-05T06:00:50.863Z,12.93
2023-05-05T06:03:17.610Z,12.50
2023-05-05T06:05:45.310Z,11.93
2023-05-05T06:08:11.996Z,12.60
2023-05-05T06:10:38.443Z,12.23
2023-05-05T06:13:04.881Z,11.77
2023-05-05T06:15:31.377Z,11.65
2023-05-05T06:17:57.794Z,11.52
2023-05-05T06:20:24.223Z,11.10
2023-05-05T06:22:50.691Z,11.05
2023-05-05T06:25:17.546Z,10.80
2023-05-05T06:27:43.977Z,11.02
2023-05-05T06:30:10.925Z,10.48
2023-05-05T06:32:37.491Z,10.73
2023-05-05T06:35:04.282Z,11.20
2023-05-05T06:37:30.700Z,10.73
2023-05-05T06:39:57.123Z,10.32
2023-05-05T06:42:23.600Z,10.63
2023-05-05T06:44:50.153Z,10.60
2023-05-05T06:47:16.586Z,10.18
2023-05-05T06:49:43.084Z,10.23
2023-05-05T06:52:09.494Z,10.90
2023-05-05T06:54:35.955Z,10.23
2023-05-05T06:57:02.402Z,9.93
2023-05-05T06:59:28.842Z,11.05
2023-05-05T07:01:56.516Z,10.38
2023-05-05T07:04:23.163Z,9.40
2023-05-05T07:06:49.601Z,9.23
2023-05-05T07:09:17.096Z,8.97
2023-05-05T07:11:44.131Z,9.25
2023-05-05T07:14:10.548Z,8.65
2023-05-05T07:16:37.192Z,7.28
2023-05-05T07:19:03.741Z,8.15
2023-05-05T07:21:30.178Z,7.30
2023-05-05T07:23:56.794Z,6.32
2023-05-05T07:26:23.421Z,6.05
2023-05-05T07:28:49.913Z,6.85
2023-05-05T07:31:16.331Z,6.97
2023-05-05T07:33:42.793Z,7.50
2023-05-05T07:36:09.303Z,7.28
2023-05-05T07:38:35.801Z,6.50
2023-05-05T07:41:02.572Z,5.85
2023-05-05T07:43:29.166Z,5.47
2023-05-05T07:45:55.615Z,5.57
2023-05-05T07:48:22.092Z,5.57
2023-05-05T07:50:48.689Z,6.05
2023-05-05T07:53:15.333Z,6.30
2023-05-05T07:55:42.108Z,5.40
2023-05-05T07:58:08.665Z,5.03
2023-05-05T08:00:35.208Z,4.80
2023-05-05T08:03:01.757Z,4.78
2023-05-05T08:05:28.342Z,4.53
2023-05-05T08:07:54.771Z,4.10
2023-05-05T08:10:21.346Z,3.40
2023-05-05T08:12:48.091Z,3.80
2023-05-05T08:15:14.578Z,3.78
2023-05-05T08:17:45.008Z,3.03
2023-05-05T08:20:11.981Z,3.80
2023-05-05T08:22:38.434Z,3.40
2023-05-05T08:25:05.466Z,4.13
2023-05-05T08:27:32.117Z,4.38
2023-05-05T08:29:58.535Z,4.18
2023-05-05T08:32:25.355Z,3.70
2023-05-05T08:34:52.876Z,4.07
2023-05-05T08:37:19.338Z,4.57
2023-05-05T08:39:45.772Z,4.70
2023-05-05T08:42:17.518Z,5.57
2023-05-05T08:44:48.879Z,5.45
2023-05-05T08:47:15.796Z,6.03
2023-05-05T08:49:46.280Z,12.98
2023-05-05T08:52:18.596Z,4.90
2023-05-05T08:54:57.382Z,4.50
2023-05-05T08:57:43.897Z,3.70
2023-05-05T09:00:12.345Z,3.20
2023-05-05T09:02:39.463Z,2.53
2023-05-05T09:05:07.171Z,2.00
2023-05-05T09:07:34.703Z,1.95
2023-05-05T09:10:04.121Z,2.00
2023-05-05T09:12:31.180Z,2.00
2023-05-05T09:14:59.315Z,2.15
2023-05-05T09:17:26.869Z,1.77
2023-05-05T09:20:01.965Z,2.00
2023-05-05T09:22:39.409Z,2.05
2023-05-05T09:25:08.681Z,2.50
2023-05-05T09:27:43.789Z,2.60
2023-05-05T09:30:12.142Z,3.92
2023-05-05T09:32:54.277Z,3.75
2023-05-05T09:35:22.139Z,5.57
2023-05-05T09:37:48.732Z,5.00
2023-05-05T09:40:18.851Z,4.93
2023-05-05T09:42:45.815Z,4.40
2023-05-05T09:45:18.465Z,4.68
2023-05-05T09:47:49.317Z,5.05
2023-05-05T09:50:16.977Z,4.87
2023-05-05T09:52:53.740Z,4.85
2023-05-05T09:55:20.198Z,4.18
2023-05-05T09:57:46.658Z,4.32
2023-05-05T10:00:13.588Z,4.07
2023-05-05T10:02:40.223Z,4.20
2023-05-05T10:05:11.779Z,3.58
2023-05-05T10:07:39.729Z,4.22
2023-05-05T10:10:10.761Z,4.20
2023-05-05T10:12:38.252Z,5.28
2023-05-05T10:15:06.511Z,5.27
2023-05-05T10:17:36.979Z,4.90
2023-05-05T10:20:04.465Z,4.90
2023-05-05T10:22:35.043Z,3.47
2023-05-05T10:25:13.089Z,2.88
2023-05-05T10:27:52.962Z,3.20
2023-05-05T10:30:32.497Z,2.30
2023-05-05T10:35:54.381Z,2.30
2023-05-05T10:38:24.637Z,2.30
2023-05-05T10:40:52.394Z,2.27
2023-05-05T10:43:18.968Z,3.20
2023-05-05T10:45:46.014Z,4.45
2023-05-05T10:48:31.220Z,4.25
2023-05-05T10:51:08.076Z,4.13
2023-05-05T10:53:58.633Z,3.67
2023-05-05T10:56:32.655Z,3.70
2023-05-05T10:59:00.589Z,3.90
2023-05-05T11:01:35.321Z,3.70
2023-05-05T11:04:22.312Z,4.03
2023-05-05T11:07:13.762Z,4.40
2023-05-05T11:09:58.683Z,4.07
2023-05-05T11:12:25.163Z,3.90
2023-05-05T11:15:27.129Z,3.70
2023-05-05T11:17:57.574Z,3.78
2023-05-05T11:20:36.341Z,4.00
2023-05-05T11:23:02.858Z,4.60
2023-05-05T11:25:35.308Z,4.00
2023-05-05T11:28:13.694Z,4.40
2023-05-05T11:30:55.517Z,4.28
2023-05-05T11:33:30.985Z,4.43
2023-05-05T11:35:58.383Z,4.53
2023-05-05T11:38:46.624Z,4.65
2023-05-05T11:41:19.069Z,4.30
2023-05-05T11:43:45.806Z,4.43
2023-05-05T11:46:16.937Z,5.10
2023-05-05T11:48:47.098Z,5.38
2023-05-05T11:51:15.093Z,5.22
2023-05-05T11:53:42.979Z,6.35
2023-05-05T11:56:11.108Z,5.32
2023-05-05T11:58:38.420Z,5.80
2023-05-05T12:01:08.386Z,5.13
2023-05-05T12:03:36.697Z,4.68
2023-05-05T12:06:04.668Z,5.03
2023-05-05T12:08:40.618Z,4.68
2023-05-05T12:11:09.003Z,8.33
2023-05-05T12:13:35.614Z,5.13
2023-05-05T12:16:12.538Z,3.88
2023-05-05T12:18:39.776Z,1.60
2023-05-05T12:21:19.623Z,2.10
2023-05-05T12:23:46.724Z,1.97
2023-05-05T12:26:25.354Z,1.58
2023-05-05T12:28:51.925Z,1.42
2023-05-05T12:31:18.455Z,1.35
2023-05-05T12:33:45.915Z,1.20
2023-05-05T12:36:12.960Z,1.40
2023-05-05T12:38:39.557Z,1.58
2023-05-05T12:41:06.370Z,1.35
2023-05-05T12:43:34.604Z,1.40
2023-05-05T12:46:05.353Z,1.50
2023-05-05T12:48:32.816Z,1.37
2023-05-05T12:51:17.341Z,2.30
2023-05-05T12:53:45.822Z,1.38
2023-05-05T12:56:32.070Z,1.20
2023-05-05T12:58:59.071Z,1.20
2023-05-05T13:01:25.672Z,1.10
2023-05-05T13:04:09.003Z,1.23
2023-05-05T13:06:36.227Z,1.10
2023-05-05T13:09:02.857Z,1.38
2023-05-05T13:11:29.337Z,1.05
2023-05-05T13:13:56.327Z,1.53
2023-05-05T13:16:22.866Z,1.30
2023-05-05T13:18:50.351Z,1.50
2023-05-05T13:21:16.793Z,1.50
2023-05-05T13:23:43.861Z,1.20
2023-05-05T13:26:11.107Z,1.00
2023-05-05T13:28:37.735Z,0.90
2023-05-05T13:31:04.507Z,1.00
2023-05-05T13:33:33.841Z,1.13
2023-05-05T13:36:01.502Z,0.90
2023-05-05T13:38:27.972Z,0.80
2023-05-05T13:40:54.421Z,1.13
2023-05-05T13:43:20.889Z,0.93
2023-05-05T13:45:47.442Z,0.90
2023-05-05T13:48:13.827Z,1.00
2023-05-05T13:50:40.274Z,1.00
2023-05-05T13:53:06.806Z,0.95
2023-05-05T13:55:33.329Z,0.98
2023-05-05T13:57:59.787Z,1.00
2023-05-05T14:00:26.440Z,0.90
2023-05-05T14:02:52.961Z,1.20
2023-05-05T14:05:19.961Z,1.17
2023-05-05T14:07:47.637Z,1.10
2023-05-05T14:10:14.065Z,1.10
2023-05-05T14:12:40.555Z,1.30
2023-05-05T14:15:07.840Z,1.20
2023-05-05T14:17:34.679Z,1.40
2023-05-05T14:20:01.329Z,1.40
2023-05-05T14:22:27.816Z,1.50
2023-05-05T14:24:54.282Z,1.30
2023-05-05T14:27:20.771Z,6.80
2023-05-05T14:29:47.201Z,2.40
2023-05-05T14:32:13.769Z,1.90
2023-05-05T14:34:40.229Z,1.20
2023-05-05T14:37:06.667Z,1.30
2023-05-05T14:39:33.138Z,1.57
2023-05-05T14:41:59.551Z,1.50
2023-05-05T14:44:26.039Z,1.23
2023-05-05T14:46:52.531Z,1.42
2023-05-05T14:49:18.978Z,1.52
2023-05-05T14:51:45.440Z,1.83
2023-05-05T14:54:20.481Z,1.35
2023-05-05T14:56:53.635Z,1.70
2023-05-05T14:59:20.086Z,1.92
2023-05-05T15:01:46.590Z,2.20
2023-05-05T15:04:12.987Z,1.60
2023-05-05T15:06:39.512Z,1.80
2023-05-05T15:09:05.965Z,1.70
2023-05-05T15:11:32.374Z,1.80
2023-05-05T15:13:58.822Z,1.90
2023-05-05T15:16:25.293Z,2.23
2023-05-05T15:18:51.908Z,2.30
2023-05-05T15:21:18.542Z,2.38
2023-05-05T15:23:45.022Z,2.80
2023-05-05T15:26:11.545Z,3.72
2023-05-05T15:28:38.013Z,3.13
2023-05-05T15:31:04.523Z,3.70
2023-05-05T15:33:30.947Z,4.63
2023-05-05T15:35:57.628Z,4.65
2023-05-05T15:38:24.091Z,4.18
2023-05-05T15:40:50.548Z,6.20
2023-05-05T15:43:16.975Z,6.25
2023-05-05T15:45:43.400Z,5.40
2023-05-05T15:48:09.857Z,5.80
2023-05-05T15:50:36.293Z,5.70
2023-05-05T15:53:02.803Z,5.73
2023-05-05T15:55:29.191Z,5.57
2023-05-05T15:57:55.794Z,5.38
2023-05-05T16:00:22.628Z,5.90
2023-05-05T16:02:49.196Z,5.18
2023-05-05T16:05:15.613Z,5.57
2023-05-05T16:07:42.070Z,5.88
2023-05-05T16:10:09.094Z,5.88
2023-05-05T16:12:35.571Z,6.28
2023-05-05T16:15:02.033Z,5.78
2023-05-05T16:17:28.583Z,5.97
2023-05-05T16:19:55.023Z,5.72
2023-05-05T16:22:21.514Z,5.43
2023-05-05T16:24:47.916Z,5.65
2023-05-05T16:27:14.382Z,6.10
2023-05-05T16:29:40.954Z,6.10
2023-05-05T16:32:07.385Z,5.85
2023-05-05T16:34:33.822Z,5.55
2023-05-05T16:37:00.343Z,5.75
2023-05-05T16:39:26.780Z,6.30
2023-05-05T16:41:53.206Z,5.33
2023-05-05T16:44:19.710Z,5.95
2023-05-05T16:46:46.206Z,5.93
2023-05-05T16:49:12.626Z,6.00
2023-05-05T16:51:39.165Z,6.07
2023-05-05T16:54:05.662Z,5.43
2023-05-05T16:56:32.108Z,6.25
2023-05-05T16:58:58.550Z,6.30
2023-05-05T17:01:25.014Z,5.90
2023-05-05T17:03:51.505Z,6.22
2023-05-05T17:06:17.935Z,6.00
2023-05-05T17:08:44.462Z,5.90
2023-05-05T17:11:11.812Z,6.07
2023-05-05T17:13:38.564Z,5.90
2023-05-05T17:16:05.133Z,5.70
2023-05-05T17:18:31.558Z,5.80
2023-05-05T17:20:57.977Z,5.40
2023-05-05T17:23:24.443Z,5.70
2023-05-05T17:25:50.846Z,5.88
2023-05-05T17:28:17.269Z,6.22
2023-05-05T17:30:43.819Z,5.93
2023-05-05T17:33:10.312Z,6.15
2023-05-05T17:35:37.579Z,5.78
2023-05-05T17:38:04.016Z,6.07
2023-05-05T17:40:30.414Z,6.13
2023-05-05T17:42:56.884Z,5.60
2023-05-05T17:45:23.916Z,6.00
2023-05-05T17:47:50.499Z,5.70
2023-05-05T17:50:17.236Z,6.03
2023-05-05T17:52:43.689Z,5.75
2023-05-05T17:55:10.578Z,5.87
2023-05-05T17:57:37.156Z,6.10
2023-05-05T18:00:07.777Z,6.55
2023-05-05T18:02:35.494Z,6.43
2023-05-05T18:05:03.013Z,6.60
2023-05-05T18:07:29.422Z,6.90
2023-05-05T18:09:55.836Z,6.75
2023-05-05T18:12:22.312Z,6.65
2023-05-05T18:14:48.763Z,6.80
2023-05-05T18:17:15.257Z,6.80
2023-05-05T18:19:41.658Z,6.97
2023-05-05T18:22:08.156Z,6.90
2023-05-05T18:24:34.622Z,6.68
2023-05-05T18:27:01.109Z,6.78
2023-05-05T18:29:27.547Z,7.00
2023-05-05T18:31:54.186Z,7.10
2023-05-05T18:34:20.827Z,6.85
2023-05-05T18:36:48.338Z,7.43
2023-05-05T18:39:14.913Z,7.65
2023-05-05T18:41:41.423Z,7.60
2023-05-05T18:44:07.982Z,7.33
2023-05-05T18:46:34.820Z,7.75
2023-05-05T18:49:01.530Z,7.50
2023-05-05T18:51:27.981Z,7.25
2023-05-05T18:53:54.524Z,7.70
2023-05-05T18:56:20.927Z,7.53
2023-05-05T18:58:47.561Z,7.57
2023-05-05T19:01:14.058Z,7.32
2023-05-05T19:03:40.494Z,7.97
2023-05-05T19:06:07.216Z,8.00
2023-05-05T19:08:33.750Z,7.67
2023-05-05T19:11:00.270Z,8.25
2023-05-05T19:13:26.790Z,8.32
2023-05-05T19:15:54.748Z,8.93
2023-05-05T19:18:21.308Z,8.68
2023-05-05T19:20:47.748Z,8.67
2023-05-05T19:23:14.195Z,9.15
2023-05-05T19:25:40.702Z,9.13
2023-05-05T19:28:07.224Z,8.68
2023-05-05T19:30:33.674Z,9.02
2023-05-05T19:33:00.242Z,8.93
2023-05-05T19:35:26.929Z,9.23
2023-05-05T19:37:53.783Z,8.73
2023-05-05T19:40:20.224Z,9.27
2023-05-05T19:42:46.666Z,9.25
2023-05-05T19:45:13.220Z,9.27
2023-05-05T19:47:39.665Z,9.50
2023-05-05T19:50:06.517Z,9.90
2023-05-05T19:52:33.066Z,9.82
2023-05-05T19:54:59.523Z,9.20
2023-05-05T19:57:26.017Z,9.80
2023-05-05T19:59:52.531Z,9.95
2023-05-05T20:02:18.988Z,10.18
2023-05-05T20:04:45.415Z,9.82
2023-05-05T20:07:11.837Z,8.55
2023-05-05T20:09:38.322Z,9.33
2023-05-05T20:12:05.215Z,8.80
2023-05-05T20:14:31.666Z,8.82
2023-05-05T20:16:58.145Z,9.88
2023-05-05T20:19:24.683Z,10.18
2023-05-05T20:21:51.111Z,9.30
2023-05-05T20:24:17.651Z,9.52
2023-05-05T20:26:44.122Z,10.55
2023-05-05T20:29:10.566Z,9.38
2023-05-05T20:31:37.360Z,10.02
2023-05-05T20:34:03.888Z,9.67
2023-05-05T20:36:30.321Z,9.73
2023-05-05T20:38:56.737Z,10.35
2023-05-05T20:41:23.179Z,10.10
2023-05-05T20:43:49.547Z,10.10
2023-05-05T20:46:16.093Z,10.33
2023-05-05T20:48:43.331Z,10.05
2023-05-05T20:51:09.887Z,10.00
2023-05-05T20:53:36.399Z,10.48
2023-05-05T20:56:05.127Z,10.43
2023-05-05T20:58:32.748Z,11.33
2023-05-05T21:00:59.223Z,11.15
2023-05-05T21:03:25.763Z,10.85
2023-05-05T21:05:52.283Z,11.15
2023-05-05T21:08:18.766Z,11.57
2023-05-05T21:10:45.301Z,11.83
2023-05-05T21:13:11.805Z,11.35
2023-05-05T21:15:38.366Z,12.35
2023-05-05T21:18:04.962Z,12.20
2023-05-05T21:20:31.483Z,12.55
2023-05-05T21:22:57.903Z,12.10
2023-05-05T21:25:25.731Z,11.93
2023-05-05T21:27:52.206Z,13.45
2023-05-05T21:30:18.712Z,12.75
2023-05-05T21:32:45.285Z,12.90
2023-05-05T21:35:11.942Z,12.80
2023-05-05T21:37:39.081Z,13.18
2023-05-05T21:40:07.393Z,14.30
2023-05-05T21:42:33.921Z,13.88
2023-05-05T21:45:00.323Z,13.18
2023-05-05T21:47:27.377Z,13.17
2023-05-05T21:49:53.898Z,13.80
2023-05-05T21:52:20.375Z,13.35
2023-05-05T21:54:46.855Z,13.50
2023-05-05T21:57:13.352Z,13.27
2023-05-05T21:59:39.783Z,14.03
2023-05-05T22:02:06.223Z,14.35
2023-05-05T22:04:32.602Z,14.45
2023-05-05T22:06:59.093Z,14.55
2023-05-05T22:09:25.546Z,14.50
2023-05-05T22:11:52.183Z,14.57
2023-05-05T22:14:18.726Z,15.23
2023-05-05T22:16:45.348Z,15.95
2023-05-05T22:19:11.900Z,15.95
2023-05-05T22:21:38.365Z,16.60
2023-05-05T22:24:05.310Z,16.63
2023-05-05T22:26:32.040Z,15.90
2023-05-05T22:28:58.535Z,16.30
2023-05-05T22:31:25.022Z,17.10
2023-05-05T22:33:51.473Z,16.60
2023-05-05T22:36:17.840Z,18.13
2023-05-05T22:38:44.304Z,18.15
2023-05-05T22:41:10.791Z,17.65
2023-05-05T22:43:37.328Z,17.30
2023-05-05T22:46:03.972Z,17.60
2023-05-05T22:48:30.402Z,18.33
2023-05-05T22:50:56.825Z,18.13
2023-05-05T22:53:23.287Z,18.63
2023-05-05T22:55:49.754Z,19.48
2023-05-05T22:58:16.273Z,18.33
2023-05-05T23:00:42.757Z,17.93
2023-05-05T23:03:09.667Z,18.60
2023-05-05T23:05:36.155Z,18.73
2023-05-05T23:08:02.604Z,18.67
2023-05-05T23:10:29.223Z,18.70
2023-05-05T23:12:55.737Z,17.87
2023-05-05T23:15:22.295Z,19.33
2023-05-05T23:17:48.724Z,18.65
2023-05-05T23:20:15.304Z,19.42
2023-05-05T23:22:41.849Z,19.52
2023-05-05T23:25:09.027Z,18.60
2023-05-05T23:27:35.658Z,19.08
2023-05-05T23:30:02.273Z,19.10
2023-05-05T23:32:28.800Z,19.58
2023-05-05T23:34:55.383Z,18.95
2023-05-05T23:37:21.848Z,19.63
2023-05-05T23:39:48.469Z,20.52
2023-05-05T23:42:14.932Z,19.02
2023-05-05T23:44:41.370Z,19.25
2023-05-05T23:47:07.783Z,18.92
2023-05-05T23:49:34.518Z,18.23
2023-05-05T23:52:00.973Z,17.98
2023-05-05T23:54:27.430Z,18.40
2023-05-05T23:56:53.979Z,18.70
2023-05-05T23:59:20.466Z,18.80
